Time;durP1;ratioP1;P1;durP2;ratioP2;P2;SDS_P1;SDS_P2;PMS_P1;PMS_P2;Temp;Humidity;BMP_temperature;BMP_pressure;BME280_temperature;BME280_humidity;BME280_pressure;Samples;Min_cycle;Max_cycle;Signal;HPM_P1;HPM_P2
2023/04/03 00:01:40;;;;;;;7.97;5.00;;;4.70;31.60;;;;;;5052987;28;20477;-66
2023/04/03 00:04:07;;;;;;;8.00;4.87;;;4.60;31.60;;;;;;5058634;28;20457;-66
2023/04/03 00:06:34;;;;;;;8.53;5.70;;;4.60;30.40;;;;;;5054513;28;20517;-66
2023/04/03 00:09:01;;;;;;;8.97;5.60;;;4.60;30.30;;;;;;5051782;28;20954;-66
2023/04/03 00:11:29;;;;;;;8.13;4.97;;;4.60;29.70;;;;;;5059060;28;20461;-66
2023/04/03 00:13:56;;;;;;;7.63;4.93;;;4.60;28.80;;;;;;5058341;28;20458;-66
2023/04/03 00:16:23;;;;;;;8.80;5.27;;;4.50;29.10;;;;;;5058986;28;20484;-66
2023/04/03 00:18:49;;;;;;;7.13;4.77;;;4.40;29.10;;;;;;5054337;28;20462;-66
2023/04/03 00:21:16;;;;;;;8.93;5.73;;;4.40;29.20;;;;;;5056039;28;21020;-66
2023/04/03 00:23:43;;;;;;;9.10;5.90;;;4.50;29.00;;;;;;5052247;28;20474;-66
2023/04/03 00:26:10;;;;;;;7.57;4.70;;;4.40;28.50;;;;;;5052393;28;20488;-66
2023/04/03 00:28:38;;;;;;;7.30;4.70;;;4.50;28.00;;;;;;5055367;28;20461;-66
2023/04/03 00:31:05;;;;;;;9.13;5.03;;;4.50;27.60;;;;;;5050459;28;20473;-66
2023/04/03 00:33:31;;;;;;;8.40;4.87;;;4.40;27.20;;;;;;5051142;28;20462;-66
2023/04/03 00:35:58;;;;;;;11.90;5.73;;;4.40;26.70;;;;;;5054171;28;20482;-66
2023/04/03 00:38:25;;;;;;;9.20;5.33;;;4.50;26.30;;;;;;5054768;28;20465;-66
2023/04/03 00:40:52;;;;;;;8.30;5.20;;;4.50;25.90;;;;;;5055441;28;20485;-66
2023/04/03 00:43:20;;;;;;;8.57;5.00;;;4.40;26.00;;;;;;5057590;28;20469;-66
2023/04/03 00:45:50;;;;;;;7.30;4.30;;;4.40;25.80;;;;;;5049717;28;20461;-68
2023/04/03 00:48:20;;;;;;;6.63;4.13;;;4.40;25.20;;;;;;5055586;28;20470;-66
2023/04/03 00:50:48;;;;;;;8.30;5.67;;;4.40;25.20;;;;;;5052399;28;20465;-66
2023/04/03 00:53:18;;;;;;;9.50;5.60;;;4.40;25.40;;;;;;5052299;28;20462;-66
2023/04/03 00:55:47;;;;;;;9.70;4.70;;;4.40;25.70;;;;;;5057178;28;20489;-66
2023/04/03 00:58:16;;;;;;;7.40;5.20;;;4.40;25.30;;;;;;5048813;28;20507;-67
2023/04/03 01:00:47;;;;;;;11.90;4.90;;;4.50;25.60;;;;;;5052077;28;20472;-66
2023/04/03 01:03:15;;;;;;;10.53;4.57;;;4.50;24.70;;;;;;5052944;28;20522;-66
2023/04/03 01:05:42;;;;;;;7.83;5.00;;;4.50;24.70;;;;;;5058052;28;20472;-66
2023/04/03 01:08:09;;;;;;;13.30;6.13;;;4.50;22.80;;;;;;5051036;28;20457;-66
2023/04/03 01:10:36;;;;;;;7.00;4.23;;;4.50;22.20;;;;;;5055504;28;20461;-66
2023/04/03 01:13:17;;;;;;;7.73;4.53;;;4.50;22.00;;;;;;5055144;28;20457;-66
2023/04/03 01:15:44;;;;;;;7.90;4.77;;;4.40;21.40;;;;;;5055625;28;20469;-66
2023/04/03 01:18:11;;;;;;;8.90;4.87;;;4.40;21.80;;;;;;5053683;28;20465;-66
2023/04/03 01:21:16;;;;;;;7.23;4.60;;;4.50;21.90;;;;;;5055518;28;20461;-66
2023/04/03 01:23:58;;;;;;;8.23;4.97;;;4.50;22.70;;;;;;5058388;28;20492;-66
2023/04/03 01:26:25;;;;;;;8.83;4.60;;;4.50;22.00;;;;;;5057657;28;20481;-66
2023/04/03 01:28:55;;;;;;;7.03;4.23;;;4.40;21.60;;;;;;5054614;28;20976;-66
2023/04/03 01:31:26;;;;;;;8.47;4.83;;;4.40;22.00;;;;;;5053520;28;20497;-66
2023/04/03 01:33:54;;;;;;;6.97;4.50;;;4.40;21.90;;;;;;5059459;28;20835;-66
2023/04/03 01:36:25;;;;;;;8.30;4.77;;;4.40;21.80;;;;;;5062935;28;20489;-67
2023/04/03 01:38:52;;;;;;;7.50;4.40;;;4.50;22.50;;;;;;5056807;28;20515;-66
2023/04/03 01:41:20;;;;;;;10.33;5.13;;;4.50;22.20;;;;;;5055232;28;20485;-66
2023/04/03 01:43:47;;;;;;;7.00;4.60;;;4.60;22.10;;;;;;5058367;28;20453;-66
2023/04/03 01:46:14;;;;;;;8.10;4.57;;;4.60;21.60;;;;;;5055128;28;20486;-66
2023/04/03 01:48:41;;;;;;;6.90;4.27;;;4.60;21.90;;;;;;5049200;28;20824;-66
2023/04/03 01:51:09;;;;;;;8.00;5.40;;;4.60;21.90;;;;;;5056225;28;20465;-66
2023/04/03 01:53:36;;;;;;;7.10;4.63;;;4.60;22.10;;;;;;5056262;28;20473;-66
2023/04/03 01:56:03;;;;;;;6.83;4.10;;;4.60;22.30;;;;;;5053883;28;20487;-66
2023/04/03 01:58:30;;;;;;;7.30;4.53;;;4.70;22.40;;;;;;5062035;28;20470;-66
2023/04/03 02:00:56;;;;;;;7.33;4.70;;;4.70;22.40;;;;;;5056260;28;20516;-66
2023/04/03 02:03:23;;;;;;;8.50;4.97;;;4.70;22.40;;;;;;5058942;28;20468;-66
2023/04/03 02:05:50;;;;;;;10.50;5.27;;;4.70;21.80;;;;;;5053340;28;20462;-68
2023/04/03 02:08:19;;;;;;;7.40;4.33;;;4.60;21.60;;;;;;5052239;28;20984;-66
2023/04/03 02:10:48;;;;;;;11.17;5.60;;;4.50;21.40;;;;;;5060407;28;20518;-66
2023/04/03 02:13:15;;;;;;;8.37;4.90;;;4.50;20.90;;;;;;5051467;28;20956;-66
2023/04/03 02:15:42;;;;;;;7.73;5.40;;;4.50;21.30;;;;;;5060370;28;20462;-66
2023/04/03 02:18:09;;;;;;;7.43;4.27;;;4.40;21.20;;;;;;5056231;28;20469;-66
2023/04/03 02:20:35;;;;;;;8.17;5.13;;;4.50;21.40;;;;;;5056275;28;20477;-66
2023/04/03 02:23:03;;;;;;;8.87;4.40;;;4.50;21.40;;;;;;5051064;28;21034;-66
2023/04/03 02:25:31;;;;;;;8.83;4.50;;;4.60;21.40;;;;;;5058269;28;20469;-66
2023/04/03 02:27:58;;;;;;;7.87;4.90;;;4.60;21.50;;;;;;5054706;28;20500;-66
2023/04/03 02:30:25;;;;;;;8.40;5.40;;;4.60;21.60;;;;;;5054343;28;20470;-66
2023/04/03 02:32:51;;;;;;;8.33;5.37;;;4.70;21.90;;;;;;5052914;28;20461;-66
2023/04/03 02:35:18;;;;;;;8.73;5.67;;;4.70;22.20;;;;;;5058191;28;20457;-67
2023/04/03 02:37:45;;;;;;;7.50;4.57;;;4.80;22.40;;;;;;5055901;28;20480;-66
2023/04/03 02:40:12;;;;;;;8.20;4.70;;;4.80;21.70;;;;;;5058536;28;20849;-66
2023/04/03 02:42:40;;;;;;;6.60;4.30;;;4.80;21.70;;;;;;5054161;28;20485;-66
2023/04/03 02:45:08;;;;;;;13.30;4.70;;;4.80;21.60;;;;;;5055413;28;20929;-66
2023/04/03 02:47:34;;;;;;;7.10;4.57;;;4.90;21.60;;;;;;5054364;28;20560;-66
2023/04/03 02:50:01;;;;;;;8.73;5.10;;;4.90;21.40;;;;;;5054857;28;20548;-66
2023/04/03 02:52:28;;;;;;;8.10;5.00;;;4.80;21.20;;;;;;5055746;28;20469;-66
2023/04/03 02:54:55;;;;;;;8.20;5.07;;;4.80;21.00;;;;;;5054477;28;20457;-66
2023/04/03 02:57:22;;;;;;;8.70;5.40;;;4.80;21.20;;;;;;5054243;28;20485;-66
2023/04/03 02:59:50;;;;;;;7.50;4.50;;;4.80;21.60;;;;;;5058299;28;20468;-66
2023/04/03 03:02:17;;;;;;;8.03;4.70;;;4.80;21.80;;;;;;5055666;28;20473;-66
2023/04/03 03:04:43;;;;;;;8.40;5.00;;;4.80;21.70;;;;;;5055145;28;20469;-66
2023/04/03 03:07:10;;;;;;;6.83;4.43;;;4.90;22.00;;;;;;5057257;28;20480;-66
2023/04/03 03:09:37;;;;;;;7.87;3.90;;;4.80;21.80;;;;;;5053395;28;20976;-66
2023/04/03 03:12:04;;;;;;;8.00;4.27;;;4.80;21.80;;;;;;5053459;28;20871;-67
2023/04/03 03:14:31;;;;;;;9.10;3.93;;;4.80;21.70;;;;;;5056419;28;20465;-66
2023/04/03 03:16:59;;;;;;;11.83;5.90;;;4.90;22.00;;;;;;5054364;28;20490;-67
2023/04/03 03:19:25;;;;;;;11.80;6.37;;;4.80;21.60;;;;;;5057163;28;20477;-66
2023/04/03 03:21:52;;;;;;;8.93;5.60;;;4.80;21.40;;;;;;5051719;28;20986;-66
2023/04/03 03:24:19;;;;;;;7.40;3.60;;;4.80;21.30;;;;;;5055999;28;20466;-66
2023/04/03 03:26:46;;;;;;;7.33;3.80;;;4.80;21.40;;;;;;5057390;28;20488;-66
2023/04/03 03:29:12;;;;;;;6.80;3.80;;;4.90;21.60;;;;;;5047439;28;20469;-66
2023/04/03 03:31:39;;;;;;;7.43;4.10;;;4.90;21.70;;;;;;5054415;28;20484;-66
2023/04/03 03:34:07;;;;;;;7.83;3.70;;;4.90;21.80;;;;;;5054053;28;20465;-66
2023/04/03 03:36:34;;;;;;;5.33;3.03;;;5.00;21.30;;;;;;5054006;28;21025;-67
2023/04/03 03:39:01;;;;;;;5.43;2.97;;;4.90;20.50;;;;;;5051323;28;20477;-66
2023/04/03 03:41:28;;;;;;;6.90;3.33;;;5.00;19.90;;;;;;5053746;28;20473;-66
2023/04/03 03:43:55;;;;;;;8.20;3.10;;;4.90;20.40;;;;;;5054432;28;20461;-66
2023/04/03 03:46:21;;;;;;;5.70;2.63;;;4.90;19.60;;;;;;5055252;28;20484;-66
2023/04/03 03:48:48;;;;;;;5.87;3.03;;;5.00;19.60;;;;;;5055168;28;20465;-66
2023/04/03 03:51:16;;;;;;;5.80;3.40;;;5.00;19.60;;;;;;5050301;28;20465;-66
2023/04/03 03:53:43;;;;;;;6.60;3.20;;;5.00;19.50;;;;;;5057928;28;21107;-66
2023/04/03 03:56:10;;;;;;;5.70;2.97;;;5.00;19.60;;;;;;5052608;28;20483;-66
2023/04/03 03:58:37;;;;;;;5.63;2.97;;;4.90;19.50;;;;;;5057178;28;20466;-66
2023/04/03 04:01:05;;;;;;;5.97;3.00;;;4.90;19.50;;;;;;5053528;28;21095;-66
2023/04/03 04:03:32;;;;;;;5.97;2.93;;;4.90;19.50;;;;;;5061748;28;20473;-66
2023/04/03 04:05:59;;;;;;;5.83;3.13;;;4.90;19.50;;;;;;5052317;28;20490;-66
2023/04/03 04:08:27;;;;;;;7.50;3.33;;;5.00;19.40;;;;;;5054271;28;20466;-66
2023/04/03 04:10:54;;;;;;;5.50;2.50;;;4.90;19.40;;;;;;5053816;28;20469;-67
2023/04/03 04:13:21;;;;;;;6.30;3.07;;;5.00;19.30;;;;;;5054951;28;20457;-66
2023/04/03 04:15:48;;;;;;;5.47;2.43;;;5.00;19.20;;;;;;5056499;28;20854;-66
2023/04/03 04:18:15;;;;;;;6.57;3.00;;;4.90;19.10;;;;;;5053672;28;20465;-66
2023/04/03 04:20:42;;;;;;;5.40;2.47;;;4.90;19.00;;;;;;5055360;28;20548;-66
2023/04/03 04:23:08;;;;;;;5.10;2.27;;;4.90;19.40;;;;;;5055057;28;20488;-66
2023/04/03 04:25:37;;;;;;;6.27;3.40;;;5.00;19.20;;;;;;5052163;28;20458;-66
2023/04/03 04:28:03;;;;;;;6.87;2.70;;;4.90;19.30;;;;;;5057037;28;20472;-65
2023/04/03 04:30:30;;;;;;;6.50;3.03;;;4.90;19.30;;;;;;5051549;28;20981;-65
2023/04/03 04:32:57;;;;;;;6.73;3.00;;;4.90;19.40;;;;;;5050513;28;20461;-66
2023/04/03 04:35:24;;;;;;;6.00;2.80;;;4.90;19.30;;;;;;5054958;28;20993;-65
2023/04/03 04:37:50;;;;;;;5.87;2.70;;;5.00;19.20;;;;;;5048558;28;20595;-65
2023/04/03 04:40:17;;;;;;;5.80;2.87;;;5.00;19.00;;;;;;5055595;28;20472;-65
2023/04/03 04:42:46;;;;;;;6.10;2.67;;;5.00;19.20;;;;;;5053444;28;21007;-65
2023/04/03 04:45:12;;;;;;;6.73;2.70;;;5.00;19.40;;;;;;5055905;28;20470;-65
2023/04/03 04:47:39;;;;;;;5.30;2.80;;;4.90;19.40;;;;;;5055850;28;21181;-65
2023/04/03 04:50:07;;;;;;;5.70;2.70;;;4.90;19.50;;;;;;5057622;28;20456;-66
2023/04/03 04:52:34;;;;;;;5.87;2.57;;;4.90;19.60;;;;;;5051184;28;20472;-65
2023/04/03 04:55:01;;;;;;;5.30;2.60;;;4.90;19.60;;;;;;5050977;28;20515;-65
2023/04/03 04:57:27;;;;;;;6.80;3.40;;;4.90;19.50;;;;;;5061237;28;20480;-65
2023/04/03 04:59:55;;;;;;;6.67;3.57;;;4.90;19.60;;;;;;5062066;28;20453;-66
2023/04/03 05:02:22;;;;;;;5.80;3.07;;;4.90;19.50;;;;;;5054466;28;20496;-65
2023/04/03 05:04:51;;;;;;;6.20;3.50;;;4.90;19.70;;;;;;5056999;28;20458;-66
2023/04/03 05:07:18;;;;;;;5.70;2.57;;;4.90;19.80;;;;;;5052880;28;20516;-65
2023/04/03 05:09:45;;;;;;;7.30;3.30;;;4.90;19.70;;;;;;5055001;28;20466;-65
2023/04/03 05:12:12;;;;;;;7.93;3.20;;;4.90;19.80;;;;;;5051918;28;20469;-65
2023/04/03 05:14:38;;;;;;;6.70;2.87;;;4.90;20.00;;;;;;5054738;28;20461;-66
2023/04/03 05:17:06;;;;;;;7.70;3.67;;;4.90;19.90;;;;;;5061668;28;20500;-66
2023/04/03 05:19:33;;;;;;;5.90;2.90;;;4.90;19.90;;;;;;5052431;28;20482;-66
2023/04/03 05:22:00;;;;;;;6.70;2.80;;;4.90;20.00;;;;;;5055607;28;20473;-66
2023/04/03 05:24:26;;;;;;;5.67;3.03;;;4.90;20.00;;;;;;5050073;28;21119;-65
2023/04/03 05:26:53;;;;;;;7.83;3.50;;;4.90;20.20;;;;;;5054192;28;20543;-66
2023/04/03 05:29:21;;;;;;;6.00;3.30;;;4.90;20.00;;;;;;5054944;28;20465;-66
2023/04/03 05:31:50;;;;;;;6.70;3.60;;;4.90;20.20;;;;;;5056169;28;20837;-66
2023/04/03 05:34:18;;;;;;;7.17;3.43;;;4.90;20.30;;;;;;5058430;28;20465;-66
2023/04/03 05:36:45;;;;;;;7.17;3.50;;;4.90;20.50;;;;;;5053894;28;20492;-66
2023/04/03 05:39:12;;;;;;;8.40;3.30;;;4.90;20.70;;;;;;5059066;28;20472;-66
2023/04/03 05:41:38;;;;;;;6.70;3.30;;;4.90;20.60;;;;;;5054319;28;20465;-65
2023/04/03 05:44:05;;;;;;;6.67;3.60;;;4.90;20.70;;;;;;5056378;28;20485;-66
2023/04/03 05:46:32;;;;;;;8.40;4.10;;;4.90;20.90;;;;;;5056354;28;20488;-66
2023/04/03 05:48:59;;;;;;;5.83;3.07;;;5.00;20.90;;;;;;5058390;28;20480;-65
2023/04/03 05:51:32;;;;;;;6.03;2.97;;;5.00;20.80;;;;;;5055275;28;20988;-66
2023/04/03 05:54:06;;;;;;;7.27;2.93;;;5.00;20.40;;;;;;5058212;28;20652;-65
2023/04/03 05:56:33;;;;;;;7.33;3.37;;;5.00;20.50;;;;;;5058015;28;20490;-66
2023/04/03 05:59:00;;;;;;;6.07;3.20;;;5.00;20.50;;;;;;5057384;28;20468;-66
2023/04/03 06:01:27;;;;;;;6.27;3.00;;;5.00;20.70;;;;;;5054483;28;20819;-66
2023/04/03 06:03:55;;;;;;;5.87;3.13;;;5.10;20.90;;;;;;5062506;28;20478;-66
2023/04/03 06:06:22;;;;;;;9.03;3.20;;;5.10;20.50;;;;;;5059653;28;20484;-66
2023/04/03 06:08:51;;;;;;;6.93;3.10;;;5.10;20.70;;;;;;5054560;28;20462;-65
2023/04/03 06:11:18;;;;;;;7.23;3.93;;;5.10;20.70;;;;;;5054965;28;20457;-66
2023/04/03 06:13:45;;;;;;;7.80;3.27;;;5.10;20.70;;;;;;5060508;28;20463;-66
2023/04/03 06:16:15;;;;;;;6.53;3.43;;;5.10;20.50;;;;;;5054382;28;20603;-64
2023/04/03 06:18:42;;;;;;;6.90;3.47;;;5.10;20.40;;;;;;5057514;28;20603;-64
2023/04/03 06:21:08;;;;;;;6.30;3.17;;;5.10;20.40;;;;;;5057655;28;20464;-65
2023/04/03 06:23:35;;;;;;;6.93;3.73;;;5.20;20.50;;;;;;5057581;28;20484;-65
2023/04/03 06:26:05;;;;;;;6.97;3.17;;;5.20;20.50;;;;;;5057699;28;20486;-64
2023/04/03 06:28:32;;;;;;;6.77;3.53;;;5.20;21.10;;;;;;5057671;28;20473;-64
2023/04/03 06:30:58;;;;;;;7.63;3.50;;;5.20;21.20;;;;;;5061349;28;20495;-64
2023/04/03 06:33:26;;;;;;;6.20;3.63;;;5.20;21.10;;;;;;5057833;28;20965;-64
2023/04/03 06:35:58;;;;;;;6.53;3.07;;;5.30;21.50;;;;;;5051485;28;21067;-65
2023/04/03 06:38:25;;;;;;;7.47;3.40;;;5.30;21.40;;;;;;5058383;28;20461;-64
2023/04/03 06:40:52;;;;;;;7.40;2.93;;;5.30;20.90;;;;;;5057563;28;20470;-64
2023/04/03 06:43:21;;;;;;;8.00;3.83;;;5.30;20.40;;;;;;5054870;28;20477;-65
2023/04/03 06:45:48;;;;;;;7.30;3.37;;;5.40;20.30;;;;;;5055310;28;20470;-65
2023/04/03 06:48:15;;;;;;;7.47;3.83;;;5.30;20.30;;;;;;5056712;28;20472;-65
2023/04/03 06:50:42;;;;;;;6.30;3.63;;;5.30;20.30;;;;;;5054718;28;20464;-64
2023/04/03 06:53:09;;;;;;;7.77;3.73;;;5.30;20.70;;;;;;5054589;28;20457;-64
2023/04/03 06:55:36;;;;;;;5.67;2.70;;;5.40;20.70;;;;;;5050301;28;20466;-68
2023/04/03 06:58:03;;;;;;;8.03;3.63;;;5.40;20.70;;;;;;5043974;28;20461;-66
2023/04/03 07:00:31;;;;;;;6.37;3.30;;;5.40;20.70;;;;;;5052233;28;23292;-68
2023/04/03 07:02:58;;;;;;;11.23;4.53;;;5.40;20.60;;;;;;5054904;28;21375;-65
2023/04/03 07:05:25;;;;;;;6.33;2.97;;;5.40;20.40;;;;;;5056149;28;20462;-63
2023/04/03 07:07:53;;;;;;;6.90;3.87;;;5.40;20.70;;;;;;5052233;28;21058;-65
2023/04/03 07:10:19;;;;;;;7.50;4.13;;;5.40;20.90;;;;;;5058444;28;20457;-66
2023/04/03 07:12:46;;;;;;;7.17;4.23;;;5.40;20.90;;;;;;5057174;28;20465;-66
2023/04/03 07:15:14;;;;;;;6.60;3.90;;;5.40;20.70;;;;;;5049414;28;20461;-68
2023/04/03 07:17:42;;;;;;;7.23;3.23;;;5.40;21.10;;;;;;5056906;28;20482;-65
2023/04/03 07:20:10;;;;;;;7.63;4.03;;;5.40;21.00;;;;;;5053462;28;20462;-66
2023/04/03 07:22:37;;;;;;;7.07;4.20;;;5.40;20.90;;;;;;5058538;28;20462;-65
2023/04/03 07:25:06;;;;;;;6.80;3.80;;;5.50;20.90;;;;;;5059257;28;20458;-66
2023/04/03 07:27:34;;;;;;;9.47;4.23;;;5.60;20.90;;;;;;5055367;28;20604;-67
2023/04/03 07:30:00;;;;;;;6.60;4.20;;;5.60;20.90;;;;;;5051889;28;20456;-66
2023/04/03 07:32:27;;;;;;;6.77;3.17;;;5.60;20.80;;;;;;5055316;28;20474;-67
2023/04/03 07:34:55;;;;;;;5.57;3.10;;;5.70;20.70;;;;;;5055123;28;20458;-67
2023/04/03 07:37:22;;;;;;;9.50;4.30;;;5.80;20.60;;;;;;5051725;28;21039;-67
2023/04/03 07:39:49;;;;;;;6.63;3.83;;;5.80;20.70;;;;;;5058992;28;20862;-67
2023/04/03 07:42:16;;;;;;;7.93;4.17;;;5.80;20.50;;;;;;5050376;28;20465;-67
2023/04/03 07:44:43;;;;;;;6.63;3.53;;;5.80;20.60;;;;;;5055001;28;20485;-65
2023/04/03 07:47:09;;;;;;;6.27;3.40;;;5.80;20.80;;;;;;5051924;28;20504;-66
2023/04/03 07:49:39;;;;;;;7.13;3.43;;;5.90;20.50;;;;;;5054512;28;20471;-66
2023/04/03 07:52:08;;;;;;;7.93;4.20;;;5.90;20.60;;;;;;5051923;28;20514;-66
2023/04/03 07:54:35;;;;;;;6.10;3.40;;;5.90;20.30;;;;;;5053204;28;20454;-67
2023/04/03 07:57:02;;;;;;;6.30;3.60;;;6.10;20.60;;;;;;5048771;28;20482;-68
2023/04/03 07:59:29;;;;;;;8.87;4.00;;;6.20;20.30;;;;;;5054756;28;20469;-68
2023/04/03 08:01:56;;;;;;;5.93;3.67;;;6.30;19.40;;;;;;5055151;28;20480;-68
2023/04/03 08:04:23;;;;;;;6.97;3.33;;;6.40;19.20;;;;;;5049301;28;20534;-68
2023/04/03 08:06:50;;;;;;;7.43;3.33;;;6.50;19.00;;;;;;5047407;28;20484;-66
2023/04/03 08:09:19;;;;;;;6.63;3.10;;;6.70;18.30;;;;;;5051773;28;21225;-66
2023/04/03 08:11:46;;;;;;;5.60;3.53;;;6.70;18.30;;;;;;5052092;28;20468;-66
2023/04/03 08:14:16;;;;;;;5.63;3.17;;;6.70;18.20;;;;;;5053116;28;20461;-68
2023/04/03 08:16:43;;;;;;;6.10;3.40;;;6.90;18.40;;;;;;5056293;28;20481;-66
2023/04/03 08:19:10;;;;;;;8.50;5.50;;;7.20;18.20;;;;;;5058559;28;20464;-67
2023/04/03 08:21:37;;;;;;;8.77;3.10;;;7.60;17.80;;;;;;5057243;28;20465;-66
2023/04/03 08:24:05;;;;;;;5.97;3.10;;;8.00;16.60;;;;;;5055689;28;20871;-65
2023/04/03 08:26:34;;;;;;;7.10;3.47;;;8.40;16.00;;;;;;5061974;28;20504;-65
2023/04/03 08:29:00;;;;;;;6.50;3.67;;;8.30;15.30;;;;;;5062163;28;20468;-65
2023/04/03 08:31:28;;;;;;;5.93;3.03;;;8.20;15.50;;;;;;5055258;28;21004;-65
2023/04/03 08:33:55;;;;;;;6.40;3.73;;;8.10;15.20;;;;;;5058084;28;22930;-65
2023/04/03 08:36:23;;;;;;;6.20;3.40;;;8.00;15.20;;;;;;5056933;28;20496;-65
2023/04/03 08:38:51;;;;;;;6.80;3.70;;;8.00;15.70;;;;;;5058748;28;20833;-66
2023/04/03 08:41:30;;;;;;;7.50;4.03;;;7.90;15.60;;;;;;5059906;28;20462;-66
2023/04/03 08:44:14;;;;;;;9.43;4.10;;;8.00;15.30;;;;;;5058307;28;20485;-66
2023/04/03 08:46:53;;;;;;;6.73;3.40;;;8.10;14.80;;;;;;5056710;28;20485;-66
2023/04/03 08:49:25;;;;;;;7.17;3.53;;;8.20;14.70;;;;;;5057915;28;20488;-66
2023/04/03 08:51:53;;;;;;;7.00;3.10;;;8.20;14.60;;;;;;5055606;28;20956;-67
2023/04/03 08:54:28;;;;;;;5.87;3.33;;;8.30;14.20;;;;;;5050147;28;20516;-65
2023/04/03 08:56:55;;;;;;;6.87;3.53;;;8.30;14.20;;;;;;5055489;28;20484;-66
2023/04/03 08:59:29;;;;;;;7.40;3.60;;;8.30;14.40;;;;;;5053705;28;20962;-66
2023/04/03 09:01:58;;;;;;;7.00;3.03;;;8.10;14.50;;;;;;5053157;28;20468;-66
2023/04/03 09:04:27;;;;;;;6.20;3.47;;;8.10;14.50;;;;;;5057347;28;20925;-66
2023/04/03 09:06:58;;;;;;;7.60;3.57;;;8.20;14.50;;;;;;5050630;28;20488;-66
2023/04/03 09:09:33;;;;;;;6.80;3.27;;;8.20;14.50;;;;;;5058028;28;20973;-65
2023/04/03 09:12:11;;;;;;;7.07;3.20;;;8.10;14.10;;;;;;5056327;28;20498;-66
2023/04/03 09:14:44;;;;;;;5.60;3.60;;;8.10;14.50;;;;;;5062991;28;20465;-65
2023/04/03 09:17:16;;;;;;;7.40;2.80;;;8.20;14.10;;;;;;5058432;28;21451;-66
2023/04/03 09:19:51;;;;;;;6.40;3.50;;;8.50;14.10;;;;;;5057421;28;20949;-64
2023/04/03 09:22:21;;;;;;;8.67;3.40;;;8.90;13.10;;;;;;5055359;28;20551;-64
2023/04/03 09:24:53;;;;;;;8.13;3.67;;;9.20;11.90;;;;;;5055503;28;20561;-65
2023/04/03 09:27:20;;;;;;;10.83;3.53;;;9.50;12.10;;;;;;5055920;28;20500;-69
2023/04/03 09:29:49;;;;;;;6.87;3.17;;;10.10;11.70;;;;;;5056530;28;20497;-68
2023/04/03 09:32:23;;;;;;;6.17;3.10;;;10.60;10.10;;;;;;5053105;28;20469;-68
2023/04/03 09:34:52;;;;;;;7.60;2.90;;;10.70;10.10;;;;;;5059155;28;21013;-66
2023/04/03 09:37:36;;;;;;;6.97;3.50;;;10.60;9.80;;;;;;5051429;28;20485;-70
2023/04/03 09:40:04;;;;;;;7.00;3.30;;;10.50;9.80;;;;;;5050728;28;20840;-69
2023/04/03 09:42:32;;;;;;;7.83;3.33;;;10.30;9.70;;;;;;5056269;28;20465;-71
2023/04/03 09:45:03;;;;;;;7.13;3.50;;;10.20;9.80;;;;;;5058103;28;20855;-71
2023/04/03 09:47:33;;;;;;;8.57;3.80;;;10.10;9.70;;;;;;5060061;28;20488;-71
2023/04/03 09:50:20;;;;;;;7.30;3.50;;;10.00;10.30;;;;;;5052962;28;20474;-71
2023/04/03 09:52:49;;;;;;;6.83;3.77;;;10.00;10.40;;;;;;5058633;28;20462;-71
2023/04/03 09:55:18;;;;;;;5.60;3.17;;;10.00;10.20;;;;;;5060275;28;20461;-71
2023/04/03 09:57:45;;;;;;;8.40;3.63;;;10.00;10.00;;;;;;5054297;28;20481;-71
2023/04/03 10:00:24;;;;;;;6.30;3.33;;;9.80;10.40;;;;;;5059910;28;20493;-71
2023/04/03 10:02:53;;;;;;;5.50;2.80;;;9.70;10.90;;;;;;5052085;28;20494;-71
2023/04/03 10:05:34;;;;;;;6.80;3.00;;;9.50;10.90;;;;;;5058670;28;20488;-71
2023/04/03 10:08:10;;;;;;;7.37;3.33;;;9.40;11.20;;;;;;5059721;28;20519;-71
2023/04/03 10:10:39;;;;;;;6.90;3.57;;;9.30;11.80;;;;;;5058670;28;20972;-71
2023/04/03 10:13:08;;;;;;;8.60;3.50;;;9.30;11.20;;;;;;5056450;28;21019;-71
2023/04/03 10:15:42;;;;;;;6.07;3.17;;;9.10;10.90;;;;;;5053784;28;20545;-71
2023/04/03 10:18:25;;;;;;;6.63;3.23;;;8.90;11.20;;;;;;5057291;28;20470;-71
2023/04/03 10:20:54;;;;;;;6.50;3.43;;;8.80;11.70;;;;;;5050310;28;20577;-71
2023/04/03 10:23:25;;;;;;;5.40;2.77;;;8.70;12.20;;;;;;5051196;28;21016;-70
2023/04/03 10:26:01;;;;;;;7.90;3.30;;;8.50;11.00;;;;;;5058634;28;20603;-71
2023/04/03 10:28:37;;;;;;;6.70;3.80;;;8.40;11.90;;;;;;5059139;28;20492;-71
2023/04/03 10:31:13;;;;;;;6.30;4.20;;;8.20;12.20;;;;;;5052809;28;20474;-71
2023/04/03 10:33:53;;;;;;;7.13;3.40;;;7.90;12.90;;;;;;5050369;28;20462;-71
2023/04/03 10:36:34;;;;;;;6.40;3.60;;;7.80;13.60;;;;;;5063149;28;20489;-71
2023/04/03 10:39:13;;;;;;;5.60;3.57;;;7.80;13.40;;;;;;5052205;28;20468;-71
2023/04/03 10:41:52;;;;;;;7.27;3.63;;;7.80;13.40;;;;;;5059344;28;20454;-71
2023/04/03 10:44:28;;;;;;;7.23;3.10;;;7.80;14.00;;;;;;5060397;28;20557;-70
2023/04/03 10:47:03;;;;;;;7.20;3.73;;;7.80;13.60;;;;;;5056113;28;20497;-70
2023/04/03 10:49:42;;;;;;;5.80;3.03;;;7.70;13.70;;;;;;5055753;28;20468;-70
2023/04/03 10:52:18;;;;;;;7.10;3.23;;;7.70;13.30;;;;;;5055485;28;20724;-70
2023/04/03 10:54:50;;;;;;;6.67;3.43;;;7.70;13.20;;;;;;5063867;28;20965;-70
2023/04/03 10:57:18;;;;;;;6.03;3.30;;;7.70;13.40;;;;;;5055039;28;20484;-70
2023/04/03 10:59:47;;;;;;;4.40;2.33;;;7.70;12.30;;;;;;5055508;28;20461;-70
2023/04/03 11:02:23;;;;;;;5.07;2.60;;;7.70;10.60;;;;;;5049663;28;20476;-70
2023/04/03 11:04:55;;;;;;;5.90;3.33;;;7.60;10.40;;;;;;5052865;28;21016;-70
2023/04/03 11:07:24;;;;;;;5.77;2.93;;;7.60;11.00;;;;;;5058944;28;20473;-70
2023/04/03 11:09:54;;;;;;;5.13;2.60;;;7.50;11.40;;;;;;5053452;28;20551;-70
2023/04/03 11:12:27;;;;;;;6.20;3.07;;;7.50;11.00;;;;;;5057350;28;20473;-70
2023/04/03 11:14:57;;;;;;;5.00;2.90;;;7.50;12.30;;;;;;5055849;28;20461;-70
2023/04/03 11:17:31;;;;;;;6.50;3.30;;;7.60;12.10;;;;;;5050586;28;20565;-70
2023/04/03 11:20:06;;;;;;;8.50;2.80;;;7.60;12.30;;;;;;5057272;28;23542;-70
2023/04/03 11:22:37;;;;;;;5.50;2.50;;;7.70;12.50;;;;;;5059807;28;21116;-70
2023/04/03 11:25:07;;;;;;;6.70;2.87;;;7.70;12.00;;;;;;5054044;28;20902;-70
2023/04/03 11:27:39;;;;;;;8.40;2.70;;;7.80;11.60;;;;;;5056024;28;21169;-70
2023/04/03 11:30:12;;;;;;;6.00;3.27;;;7.80;11.30;;;;;;5058014;28;20501;-71
2023/04/03 11:33:13;;;;;;;7.80;2.90;;;7.80;12.10;;;;;;5049620;28;20473;-70
2023/04/03 11:35:44;;;;;;;6.77;2.93;;;7.70;11.70;;;;;;5055176;28;20465;-70
2023/04/03 11:38:20;;;;;;;6.13;3.13;;;7.70;11.90;;;;;;5056068;28;20468;-70
2023/04/03 11:40:48;;;;;;;6.20;2.80;;;7.80;11.90;;;;;;5053700;28;20817;-70
2023/04/03 11:43:26;;;;;;;6.97;2.90;;;7.80;12.10;;;;;;5053207;28;20469;-71
2023/04/03 11:45:59;;;;;;;5.80;2.80;;;7.80;12.30;;;;;;5051703;28;20484;-70
2023/04/03 11:48:53;;;;;;;5.30;2.80;;;7.70;12.30;;;;;;5054563;28;20461;-70
2023/04/03 11:51:53;;;;;;;11.07;3.40;;;7.70;12.60;;;;;;5057823;28;20850;-70
2023/04/03 11:54:46;;;;;;;6.63;2.50;;;7.60;12.40;;;;;;5053284;28;20466;-70
2023/04/03 11:58:03;;;;;;;4.70;2.43;;;7.50;12.10;;;;;;5052534;28;20480;-71
2023/04/03 12:01:00;;;;;;;6.47;3.03;;;7.40;12.30;;;;;;5053093;28;20556;-72
2023/04/03 12:04:05;;;;;;;7.20;2.90;;;7.50;13.00;;;;;;5056200;28;20461;-70
2023/04/03 12:07:12;;;;;;;7.10;2.87;;;7.50;13.00;;;;;;5055418;28;20485;-71
2023/04/03 12:10:18;;;;;;;5.73;3.03;;;7.60;12.60;;;;;;5058595;28;20496;-70
2023/04/03 12:12:58;;;;;;;5.67;2.20;;;7.60;12.80;;;;;;5057859;28;20583;-70
2023/04/03 12:15:50;;;;;;;5.50;2.30;;;7.70;11.80;;;;;;5056206;28;20456;-70
2023/04/03 12:18:44;;;;;;;5.83;2.80;;;7.70;11.50;;;;;;5057118;28;20580;-70
2023/04/03 12:21:13;;;;;;;5.30;2.40;;;7.80;11.90;;;;;;5052114;28;20461;-71
2023/04/03 12:24:00;;;;;;;5.37;2.80;;;7.90;11.80;;;;;;5056812;28;20461;-70
2023/04/03 12:26:31;;;;;;;7.40;2.83;;;7.90;12.00;;;;;;5051215;28;20709;-70
2023/04/03 12:28:58;;;;;;;5.00;2.80;;;7.90;11.70;;;;;;5052870;28;20911;-70
2023/04/03 12:31:33;;;;;;;6.90;3.00;;;8.10;12.20;;;;;;5052152;28;20469;-70
2023/04/03 12:34:19;;;;;;;7.50;2.87;;;8.30;12.20;;;;;;5054389;28;20470;-71
2023/04/03 12:37:00;;;;;;;5.20;2.50;;;8.40;11.20;;;;;;5053617;28;20497;-70
2023/04/03 12:39:49;;;;;;;5.87;2.90;;;8.50;11.00;;;;;;5051854;28;20489;-70
2023/04/03 12:42:31;;;;;;;6.73;2.77;;;8.70;11.00;;;;;;5057207;28;20881;-70
2023/04/03 12:45:03;;;;;;;5.17;2.57;;;8.80;10.50;;;;;;5052445;28;20485;-69
2023/04/03 12:47:35;;;;;;;5.07;2.40;;;8.80;10.70;;;;;;5053841;28;20504;-70
2023/04/03 12:50:04;;;;;;;7.43;2.30;;;8.80;10.90;;;;;;5053363;28;20465;-70
2023/04/03 12:52:38;;;;;;;5.53;2.70;;;8.70;11.00;;;;;;5053780;28;20465;-70
2023/04/03 12:55:15;;;;;;;5.83;2.63;;;8.70;10.20;;;;;;5056482;28;20879;-70
2023/04/03 12:57:41;;;;;;;5.50;2.37;;;8.50;10.10;;;;;;5055211;28;20587;-70
2023/04/03 13:00:32;;;;;;;5.70;2.60;;;8.20;9.80;;;;;;5061193;28;20462;-70
2023/04/03 13:02:59;;;;;;;6.30;2.30;;;8.10;10.60;;;;;;5055126;28;20493;-70
2023/04/03 13:05:26;;;;;;;5.30;2.33;;;8.10;10.80;;;;;;5054625;28;20480;-70
2023/04/03 13:07:59;;;;;;;7.10;3.07;;;8.10;11.30;;;;;;5053772;28;20931;-70
2023/04/03 13:10:26;;;;;;;6.93;2.63;;;8.00;10.90;;;;;;5054241;28;20853;-70
2023/04/03 13:12:55;;;;;;;5.20;2.60;;;7.80;11.30;;;;;;5057505;28;20824;-70